Five Finger, AK current weather conditions

sailwx.info

Wind from 350 at 26 knots gusting 31

Air temperature -4.5° C

Last reported at 2020-Jan-18 13:00 UTC.
Time now 2020-Jan-18 14:01 UTC

Location: N 57°16' W 133°38'.
View on Google Maps.

See reports from other nearby stations

  
Tides and Currents Weather Stations Pressure Air Temp Water Temp Dewpoint Dewpoint Depression Visibility Wind Speed Wind Dir Waves Ship Positions
date/time (UTC)wind fromknots sea level pressurealtimeterstation pressurevisibilityair tempwater tempwave heightnotes
2020-Jan-18 13:00 350 26 gusting 31 -4.5
2020-Jan-18 12:00 340 29 gusting 33 -4.8
2020-Jan-18 11:00 350 31 gusting 34 -5.1
2020-Jan-18 10:00 350 31 gusting 35 -5.0
2020-Jan-18 09:00 350 31 gusting 34 -5.1
2020-Jan-18 08:00 350 33 gusting 36 -5.6
2020-Jan-18 07:00 350 31 gusting 35 -5.0
2020-Jan-18 06:00 010 29 gusting 33 -4.9
2020-Jan-18 05:00 360 27 gusting 29 -4.7
2020-Jan-18 04:00 360 25 gusting 28 -5.2
2020-Jan-18 03:00 010 21 gusting 24 -5.0
2020-Jan-18 02:00 030 14 gusting 20 -4.7
2020-Jan-18 01:00 350 25 gusting 29 -5.1
2020-Jan-18 00:00 350 27 gusting 31 -5.5
2020-Jan-17 23:00 360 20 gusting 27 -5.3
2020-Jan-17 22:00 010 20 gusting 24 -5.4
2020-Jan-17 21:00 010 13 gusting 17 -5.7
2020-Jan-17 20:00 010 13 gusting 17 -5.6
2020-Jan-17 19:00 040 5 gusting 7 -6.1
2020-Jan-17 18:00 060 13 gusting 15 -6.4
2020-Jan-17 17:00 060 9 gusting 12 -6.4
2020-Jan-17 16:00 080 9 gusting 12 -6.7
2020-Jan-17 15:00 080 11 gusting 13 -6.8
2020-Jan-17 14:00 090 17 gusting 19 -7.0
2020-Jan-17 13:00 080 18 gusting 20 -7.2
2020-Jan-17 12:00 080 20 gusting 21 -7.4
2020-Jan-17 11:00 070 18 gusting 19 -7.0
2020-Jan-17 10:00 070 19 gusting 20 -7.1
2020-Jan-17 09:00 070 20 gusting 22 -7.1
2020-Jan-17 08:00 080 15 gusting 20 -7.0
2020-Jan-17 07:00 080 20 gusting 24 -6.8
2020-Jan-17 06:00 070 18 gusting 20 -6.6
2020-Jan-17 05:00 070 15 gusting 19 -6.6
2020-Jan-17 04:00 080 20 gusting 22 -6.5
2020-Jan-17 03:00 080 20 gusting 22 -6.8
2020-Jan-17 02:00 080 20 gusting 21 -6.6
2020-Jan-17 01:00 090 19 gusting 20 -6.6
2020-Jan-17 00:00 090 19 gusting 22 -6.3
2020-Jan-16 23:00 090 20 gusting 22 -6.0
2020-Jan-16 22:00 040 17 gusting 19 -5.6
2020-Jan-16 21:00 030 18 gusting 20 -5.9
2020-Jan-16 20:00 030 21 gusting 24 -5.9
2020-Jan-16 19:00 030 21 gusting 26 -5.9
2020-Jan-16 18:00 030 24 gusting 28 -6.0
2020-Jan-16 17:00 020 22 gusting 26 -6.1
2020-Jan-16 16:00 040 24 gusting 27 -6.5
2020-Jan-16 15:00 040 22 gusting 26 -6.8
2020-Jan-16 14:00 030 20 gusting 25 -7.2